sensor_id;sensor_type;location;lat;lon;timestamp;P1;durP1;ratioP1;P2;durP2;ratioP2
26536;SDS011;14204;51.262;5.488;2023-12-20T00:01:38;23.25;;;5.53;;
26536;SDS011;14204;51.262;5.488;2023-12-20T00:04:03;25.92;;;6.38;;
26536;SDS011;14204;51.262;5.488;2023-12-20T00:06:29;16.63;;;4.40;;
26536;SDS011;14204;51.262;5.488;2023-12-20T00:08:56;23.60;;;4.93;;
26536;SDS011;14204;51.262;5.488;2023-12-20T00:11:23;19.85;;;3.92;;
26536;SDS011;14204;51.262;5.488;2023-12-20T00:13:50;19.13;;;4.75;;
26536;SDS011;14204;51.262;5.488;2023-12-20T00:16:17;25.50;;;4.10;;
26536;SDS011;14204;51.262;5.488;2023-12-20T00:18:43;21.50;;;4.35;;
26536;SDS011;14204;51.262;5.488;2023-12-20T00:21:09;18.25;;;3.65;;
26536;SDS011;14204;51.262;5.488;2023-12-20T00:23:34;18.73;;;3.72;;
26536;SDS011;14204;51.262;5.488;2023-12-20T00:26:00;19.10;;;3.95;;
26536;SDS011;14204;51.262;5.488;2023-12-20T00:28:26;12.48;;;3.72;;
26536;SDS011;14204;51.262;5.488;2023-12-20T00:30:51;25.55;;;4.15;;
26536;SDS011;14204;51.262;5.488;2023-12-20T00:33:17;18.15;;;3.90;;
26536;SDS011;14204;51.262;5.488;2023-12-20T00:35:43;15.32;;;3.50;;
26536;SDS011;14204;51.262;5.488;2023-12-20T00:38:09;13.65;;;3.15;;
26536;SDS011;14204;51.262;5.488;2023-12-20T00:40:36;20.10;;;3.70;;
26536;SDS011;14204;51.262;5.488;2023-12-20T00:43:02;27.67;;;5.05;;
26536;SDS011;14204;51.262;5.488;2023-12-20T00:45:28;20.63;;;3.97;;
26536;SDS011;14204;51.262;5.488;2023-12-20T00:47:54;19.48;;;3.05;;
26536;SDS011;14204;51.262;5.488;2023-12-20T00:50:20;20.17;;;3.50;;
26536;SDS011;14204;51.262;5.488;2023-12-20T00:52:49;19.45;;;3.08;;
26536;SDS011;14204;51.262;5.488;2023-12-20T00:55:16;23.08;;;3.20;;
26536;SDS011;14204;51.262;5.488;2023-12-20T00:57:45;23.50;;;3.65;;
26536;SDS011;14204;51.262;5.488;2023-12-20T01:00:14;20.13;;;3.13;;
26536;SDS011;14204;51.262;5.488;2023-12-20T01:02:41;15.52;;;2.75;;
26536;SDS011;14204;51.262;5.488;2023-12-20T01:05:08;26.85;;;3.67;;
26536;SDS011;14204;51.262;5.488;2023-12-20T01:07:34;16.50;;;3.25;;
26536;SDS011;14204;51.262;5.488;2023-12-20T01:10:06;20.97;;;4.93;;
26536;SDS011;14204;51.262;5.488;2023-12-20T01:12:32;14.20;;;4.15;;
26536;SDS011;14204;51.262;5.488;2023-12-20T01:14:58;18.75;;;3.75;;
26536;SDS011;14204;51.262;5.488;2023-12-20T01:17:28;20.48;;;3.65;;
26536;SDS011;14204;51.262;5.488;2023-12-20T01:19:55;20.75;;;3.67;;
26536;SDS011;14204;51.262;5.488;2023-12-20T01:22:22;24.25;;;3.78;;
26536;SDS011;14204;51.262;5.488;2023-12-20T01:24:49;24.13;;;4.03;;
26536;SDS011;14204;51.262;5.488;2023-12-20T01:27:16;15.40;;;3.95;;
26536;SDS011;14204;51.262;5.488;2023-12-20T01:29:42;17.63;;;3.38;;
26536;SDS011;14204;51.262;5.488;2023-12-20T01:32:08;17.13;;;3.38;;
26536;SDS011;14204;51.262;5.488;2023-12-20T01:34:36;17.73;;;3.95;;
26536;SDS011;14204;51.262;5.488;2023-12-20T01:37:07;22.30;;;3.40;;
26536;SDS011;14204;51.262;5.488;2023-12-20T01:39:34;19.83;;;3.80;;
26536;SDS011;14204;51.262;5.488;2023-12-20T01:42:01;25.30;;;4.07;;
26536;SDS011;14204;51.262;5.488;2023-12-20T01:44:30;22.27;;;3.63;;
26536;SDS011;14204;51.262;5.488;2023-12-20T01:46:57;21.60;;;3.92;;
26536;SDS011;14204;51.262;5.488;2023-12-20T01:49:23;11.48;;;3.10;;
26536;SDS011;14204;51.262;5.488;2023-12-20T01:51:50;14.90;;;3.92;;
26536;SDS011;14204;51.262;5.488;2023-12-20T01:54:17;24.02;;;4.03;;
26536;SDS011;14204;51.262;5.488;2023-12-20T01:56:48;27.30;;;3.80;;
26536;SDS011;14204;51.262;5.488;2023-12-20T01:59:14;18.70;;;4.38;;
26536;SDS011;14204;51.262;5.488;2023-12-20T02:01:40;16.73;;;4.00;;
26536;SDS011;14204;51.262;5.488;2023-12-20T02:04:06;14.48;;;4.50;;
26536;SDS011;14204;51.262;5.488;2023-12-20T02:06:36;13.93;;;3.97;;
26536;SDS011;14204;51.262;5.488;2023-12-20T02:09:05;22.73;;;3.67;;
26536;SDS011;14204;51.262;5.488;2023-12-20T02:11:32;24.50;;;4.32;;
26536;SDS011;14204;51.262;5.488;2023-12-20T02:14:00;27.73;;;5.40;;
26536;SDS011;14204;51.262;5.488;2023-12-20T02:16:26;20.50;;;4.68;;
26536;SDS011;14204;51.262;5.488;2023-12-20T02:18:54;14.38;;;4.15;;
26536;SDS011;14204;51.262;5.488;2023-12-20T02:21:24;19.80;;;4.32;;
26536;SDS011;14204;51.262;5.488;2023-12-20T02:23:51;17.65;;;5.15;;
26536;SDS011;14204;51.262;5.488;2023-12-20T02:26:19;24.67;;;3.97;;
26536;SDS011;14204;51.262;5.488;2023-12-20T02:28:45;25.13;;;5.25;;
26536;SDS011;14204;51.262;5.488;2023-12-20T02:31:11;17.40;;;4.45;;
26536;SDS011;14204;51.262;5.488;2023-12-20T02:33:37;25.67;;;5.10;;
26536;SDS011;14204;51.262;5.488;2023-12-20T02:36:06;18.83;;;3.97;;
26536;SDS011;14204;51.262;5.488;2023-12-20T02:38:33;20.52;;;4.55;;
26536;SDS011;14204;51.262;5.488;2023-12-20T02:40:59;20.42;;;4.85;;
26536;SDS011;14204;51.262;5.488;2023-12-20T02:43:25;21.13;;;4.80;;
26536;SDS011;14204;51.262;5.488;2023-12-20T02:45:50;25.88;;;5.38;;
26536;SDS011;14204;51.262;5.488;2023-12-20T02:48:16;19.30;;;4.85;;
26536;SDS011;14204;51.262;5.488;2023-12-20T02:50:41;24.23;;;5.28;;
26536;SDS011;14204;51.262;5.488;2023-12-20T02:53:07;20.30;;;4.95;;
26536;SDS011;14204;51.262;5.488;2023-12-20T02:55:33;25.52;;;5.43;;
26536;SDS011;14204;51.262;5.488;2023-12-20T02:57:59;23.73;;;5.97;;
26536;SDS011;14204;51.262;5.488;2023-12-20T03:00:24;19.85;;;5.40;;
26536;SDS011;14204;51.262;5.488;2023-12-20T03:02:50;26.70;;;6.63;;
26536;SDS011;14204;51.262;5.488;2023-12-20T03:05:16;20.80;;;5.50;;
26536;SDS011;14204;51.262;5.488;2023-12-20T03:07:41;21.67;;;5.32;;
26536;SDS011;14204;51.262;5.488;2023-12-20T03:10:07;24.80;;;5.80;;
26536;SDS011;14204;51.262;5.488;2023-12-20T03:12:34;27.80;;;6.28;;
26536;SDS011;14204;51.262;5.488;2023-12-20T03:15:00;24.55;;;6.13;;
26536;SDS011;14204;51.262;5.488;2023-12-20T03:17:26;23.67;;;6.10;;
26536;SDS011;14204;51.262;5.488;2023-12-20T03:19:51;22.95;;;6.38;;
26536;SDS011;14204;51.262;5.488;2023-12-20T03:22:17;26.63;;;6.50;;
26536;SDS011;14204;51.262;5.488;2023-12-20T03:24:42;28.30;;;6.32;;
26536;SDS011;14204;51.262;5.488;2023-12-20T03:27:08;23.75;;;6.93;;
26536;SDS011;14204;51.262;5.488;2023-12-20T03:29:34;18.85;;;6.00;;
26536;SDS011;14204;51.262;5.488;2023-12-20T03:32:00;20.38;;;6.28;;
26536;SDS011;14204;51.262;5.488;2023-12-20T03:34:26;22.20;;;5.90;;
26536;SDS011;14204;51.262;5.488;2023-12-20T03:36:52;22.70;;;5.80;;
26536;SDS011;14204;51.262;5.488;2023-12-20T03:39:17;27.40;;;6.25;;
26536;SDS011;14204;51.262;5.488;2023-12-20T03:41:43;26.85;;;5.95;;
26536;SDS011;14204;51.262;5.488;2023-12-20T03:44:09;24.15;;;6.35;;
26536;SDS011;14204;51.262;5.488;2023-12-20T03:46:35;36.20;;;7.55;;
26536;SDS011;14204;51.262;5.488;2023-12-20T03:49:00;26.92;;;7.15;;
26536;SDS011;14204;51.262;5.488;2023-12-20T03:51:26;25.13;;;6.03;;
26536;SDS011;14204;51.262;5.488;2023-12-20T03:53:51;18.27;;;5.85;;
26536;SDS011;14204;51.262;5.488;2023-12-20T03:56:17;23.98;;;5.88;;
26536;SDS011;14204;51.262;5.488;2023-12-20T03:58:43;25.88;;;6.20;;
26536;SDS011;14204;51.262;5.488;2023-12-20T04:01:09;31.98;;;7.68;;
26536;SDS011;14204;51.262;5.488;2023-12-20T04:03:38;31.48;;;7.28;;
26536;SDS011;14204;51.262;5.488;2023-12-20T04:06:05;29.15;;;6.57;;
26536;SDS011;14204;51.262;5.488;2023-12-20T04:08:31;25.55;;;7.47;;
26536;SDS011;14204;51.262;5.488;2023-12-20T04:10:57;31.13;;;7.47;;
26536;SDS011;14204;51.262;5.488;2023-12-20T04:13:22;29.73;;;7.63;;
26536;SDS011;14204;51.262;5.488;2023-12-20T04:15:48;25.73;;;7.50;;
26536;SDS011;14204;51.262;5.488;2023-12-20T04:18:16;33.00;;;7.57;;
26536;SDS011;14204;51.262;5.488;2023-12-20T04:20:41;24.02;;;7.35;;
26536;SDS011;14204;51.262;5.488;2023-12-20T04:23:07;23.98;;;6.72;;
26536;SDS011;14204;51.262;5.488;2023-12-20T04:25:32;35.00;;;8.40;;
26536;SDS011;14204;51.262;5.488;2023-12-20T04:27:58;30.55;;;7.18;;
26536;SDS011;14204;51.262;5.488;2023-12-20T04:30:24;23.17;;;7.03;;
26536;SDS011;14204;51.262;5.488;2023-12-20T04:32:49;27.17;;;6.38;;
26536;SDS011;14204;51.262;5.488;2023-12-20T04:35:15;17.88;;;5.78;;
26536;SDS011;14204;51.262;5.488;2023-12-20T04:37:41;32.85;;;6.72;;
26536;SDS011;14204;51.262;5.488;2023-12-20T04:40:07;26.13;;;6.15;;
26536;SDS011;14204;51.262;5.488;2023-12-20T04:42:33;24.65;;;6.43;;
26536;SDS011;14204;51.262;5.488;2023-12-20T04:44:59;21.20;;;5.32;;
26536;SDS011;14204;51.262;5.488;2023-12-20T04:47:24;26.95;;;6.38;;
26536;SDS011;14204;51.262;5.488;2023-12-20T04:49:50;25.77;;;5.35;;
26536;SDS011;14204;51.262;5.488;2023-12-20T04:52:16;32.33;;;6.68;;
26536;SDS011;14204;51.262;5.488;2023-12-20T04:54:42;28.17;;;6.68;;
26536;SDS011;14204;51.262;5.488;2023-12-20T04:57:07;26.30;;;5.78;;
26536;SDS011;14204;51.262;5.488;2023-12-20T04:59:33;25.45;;;5.47;;
26536;SDS011;14204;51.262;5.488;2023-12-20T05:01:58;21.52;;;5.60;;
26536;SDS011;14204;51.262;5.488;2023-12-20T05:04:24;25.50;;;4.85;;
26536;SDS011;14204;51.262;5.488;2023-12-20T05:06:50;32.58;;;5.70;;
26536;SDS011;14204;51.262;5.488;2023-12-20T05:09:15;23.83;;;5.22;;
26536;SDS011;14204;51.262;5.488;2023-12-20T05:11:41;24.17;;;6.35;;
26536;SDS011;14204;51.262;5.488;2023-12-20T05:14:07;28.38;;;6.05;;
26536;SDS011;14204;51.262;5.488;2023-12-20T05:16:32;24.90;;;5.72;;
26536;SDS011;14204;51.262;5.488;2023-12-20T05:18:58;28.08;;;5.95;;
26536;SDS011;14204;51.262;5.488;2023-12-20T05:21:26;23.38;;;5.90;;
26536;SDS011;14204;51.262;5.488;2023-12-20T05:23:51;26.60;;;6.05;;
26536;SDS011;14204;51.262;5.488;2023-12-20T05:26:17;32.58;;;5.60;;
26536;SDS011;14204;51.262;5.488;2023-12-20T05:28:43;25.50;;;5.72;;
26536;SDS011;14204;51.262;5.488;2023-12-20T05:31:09;26.50;;;5.70;;
26536;SDS011;14204;51.262;5.488;2023-12-20T05:33:35;27.83;;;6.05;;
26536;SDS011;14204;51.262;5.488;2023-12-20T05:36:00;24.15;;;5.90;;
26536;SDS011;14204;51.262;5.488;2023-12-20T05:38:26;26.92;;;5.68;;
26536;SDS011;14204;51.262;5.488;2023-12-20T05:40:52;24.33;;;5.93;;
26536;SDS011;14204;51.262;5.488;2023-12-20T05:43:17;24.88;;;5.55;;
26536;SDS011;14204;51.262;5.488;2023-12-20T05:45:43;29.52;;;5.95;;
26536;SDS011;14204;51.262;5.488;2023-12-20T05:48:09;29.55;;;5.90;;
26536;SDS011;14204;51.262;5.488;2023-12-20T05:50:34;26.05;;;5.60;;
26536;SDS011;14204;51.262;5.488;2023-12-20T05:53:00;34.72;;;6.22;;
26536;SDS011;14204;51.262;5.488;2023-12-20T05:55:26;30.90;;;6.47;;
26536;SDS011;14204;51.262;5.488;2023-12-20T05:57:52;30.77;;;6.60;;
26536;SDS011;14204;51.262;5.488;2023-12-20T06:00:17;29.58;;;6.05;;
26536;SDS011;14204;51.262;5.488;2023-12-20T06:02:43;23.92;;;5.15;;
26536;SDS011;14204;51.262;5.488;2023-12-20T06:05:09;33.90;;;5.75;;
26536;SDS011;14204;51.262;5.488;2023-12-20T06:07:35;31.80;;;5.30;;
26536;SDS011;14204;51.262;5.488;2023-12-20T06:10:00;26.90;;;5.88;;
26536;SDS011;14204;51.262;5.488;2023-12-20T06:12:26;20.63;;;5.43;;
26536;SDS011;14204;51.262;5.488;2023-12-20T06:14:53;27.80;;;6.10;;
26536;SDS011;14204;51.262;5.488;2023-12-20T06:17:19;35.13;;;6.68;;
26536;SDS011;14204;51.262;5.488;2023-12-20T06:19:45;29.55;;;5.53;;
26536;SDS011;14204;51.262;5.488;2023-12-20T06:22:13;29.15;;;5.15;;
26536;SDS011;14204;51.262;5.488;2023-12-20T06:24:39;31.02;;;5.97;;
26536;SDS011;14204;51.262;5.488;2023-12-20T06:27:05;25.83;;;5.93;;
26536;SDS011;14204;51.262;5.488;2023-12-20T06:29:31;32.72;;;5.63;;
26536;SDS011;14204;51.262;5.488;2023-12-20T06:31:57;20.52;;;5.53;;
26536;SDS011;14204;51.262;5.488;2023-12-20T06:34:22;25.33;;;6.20;;
26536;SDS011;14204;51.262;5.488;2023-12-20T06:36:48;19.83;;;4.88;;
26536;SDS011;14204;51.262;5.488;2023-12-20T06:39:14;35.15;;;5.55;;
26536;SDS011;14204;51.262;5.488;2023-12-20T06:41:39;31.65;;;5.45;;
26536;SDS011;14204;51.262;5.488;2023-12-20T06:44:05;22.80;;;5.55;;
26536;SDS011;14204;51.262;5.488;2023-12-20T06:46:31;26.27;;;6.38;;
26536;SDS011;14204;51.262;5.488;2023-12-20T06:48:57;27.45;;;5.80;;
26536;SDS011;14204;51.262;5.488;2023-12-20T06:51:22;28.17;;;5.28;;
26536;SDS011;14204;51.262;5.488;2023-12-20T06:53:51;24.42;;;5.25;;
26536;SDS011;14204;51.262;5.488;2023-12-20T06:56:17;22.45;;;5.10;;
26536;SDS011;14204;51.262;5.488;2023-12-20T06:58:43;24.40;;;5.18;;
26536;SDS011;14204;51.262;5.488;2023-12-20T07:01:12;32.58;;;6.70;;
26536;SDS011;14204;51.262;5.488;2023-12-20T07:03:38;25.40;;;5.28;;
26536;SDS011;14204;51.262;5.488;2023-12-20T07:06:04;28.13;;;5.82;;
26536;SDS011;14204;51.262;5.488;2023-12-20T07:08:30;28.27;;;6.22;;
26536;SDS011;14204;51.262;5.488;2023-12-20T07:10:56;26.42;;;6.18;;
26536;SDS011;14204;51.262;5.488;2023-12-20T07:13:22;27.10;;;5.25;;
26536;SDS011;14204;51.262;5.488;2023-12-20T07:15:48;23.75;;;5.60;;
26536;SDS011;14204;51.262;5.488;2023-12-20T07:18:14;25.30;;;5.50;;
26536;SDS011;14204;51.262;5.488;2023-12-20T07:20:39;21.67;;;5.82;;
26536;SDS011;14204;51.262;5.488;2023-12-20T07:23:05;31.25;;;6.13;;
26536;SDS011;14204;51.262;5.488;2023-12-20T07:25:31;25.40;;;6.22;;
26536;SDS011;14204;51.262;5.488;2023-12-20T07:27:57;41.78;;;13.32;;
26536;SDS011;14204;51.262;5.488;2023-12-20T07:30:23;20.58;;;5.63;;
26536;SDS011;14204;51.262;5.488;2023-12-20T07:32:49;26.27;;;5.28;;
26536;SDS011;14204;51.262;5.488;2023-12-20T07:35:15;26.45;;;5.65;;
26536;SDS011;14204;51.262;5.488;2023-12-20T07:37:41;28.48;;;5.70;;
26536;SDS011;14204;51.262;5.488;2023-12-20T07:40:07;27.38;;;5.88;;
26536;SDS011;14204;51.262;5.488;2023-12-20T07:42:33;24.35;;;5.60;;
26536;SDS011;14204;51.262;5.488;2023-12-20T07:44:59;24.13;;;5.40;;
26536;SDS011;14204;51.262;5.488;2023-12-20T07:47:24;32.95;;;6.38;;
26536;SDS011;14204;51.262;5.488;2023-12-20T07:49:50;23.17;;;5.18;;
26536;SDS011;14204;51.262;5.488;2023-12-20T07:52:17;27.42;;;5.10;;
26536;SDS011;14204;51.262;5.488;2023-12-20T07:54:44;23.48;;;5.70;;
26536;SDS011;14204;51.262;5.488;2023-12-20T07:57:13;20.10;;;4.78;;
26536;SDS011;14204;51.262;5.488;2023-12-20T07:59:39;22.88;;;5.20;;
26536;SDS011;14204;51.262;5.488;2023-12-20T08:02:04;32.85;;;4.97;;
26536;SDS011;14204;51.262;5.488;2023-12-20T08:04:31;29.40;;;5.07;;
26536;SDS011;14204;51.262;5.488;2023-12-20T08:06:57;26.17;;;5.60;;
26536;SDS011;14204;51.262;5.488;2023-12-20T08:09:23;24.95;;;4.65;;
26536;SDS011;14204;51.262;5.488;2023-12-20T08:11:49;30.77;;;6.25;;
26536;SDS011;14204;51.262;5.488;2023-12-20T08:14:15;23.25;;;5.15;;
26536;SDS011;14204;51.262;5.488;2023-12-20T08:16:41;24.48;;;5.05;;
26536;SDS011;14204;51.262;5.488;2023-12-20T08:19:07;24.40;;;4.55;;
26536;SDS011;14204;51.262;5.488;2023-12-20T08:21:33;30.45;;;5.75;;
26536;SDS011;14204;51.262;5.488;2023-12-20T08:23:59;26.63;;;5.88;;
26536;SDS011;14204;51.262;5.488;2023-12-20T08:26:25;18.55;;;5.13;;
26536;SDS011;14204;51.262;5.488;2023-12-20T08:28:51;22.50;;;4.90;;
26536;SDS011;14204;51.262;5.488;2023-12-20T08:31:18;26.70;;;4.75;;
26536;SDS011;14204;51.262;5.488;2023-12-20T08:33:44;26.67;;;4.93;;
26536;SDS011;14204;51.262;5.488;2023-12-20T08:36:11;24.88;;;5.07;;
26536;SDS011;14204;51.262;5.488;2023-12-20T08:38:37;22.95;;;5.63;;
26536;SDS011;14204;51.262;5.488;2023-12-20T08:41:03;18.13;;;4.05;;
26536;SDS011;14204;51.262;5.488;2023-12-20T08:43:30;28.63;;;6.07;;
26536;SDS011;14204;51.262;5.488;2023-12-20T08:45:57;28.38;;;5.43;;
26536;SDS011;14204;51.262;5.488;2023-12-20T08:48:23;20.40;;;4.63;;
26536;SDS011;14204;51.262;5.488;2023-12-20T08:50:48;22.35;;;4.70;;
26536;SDS011;14204;51.262;5.488;2023-12-20T08:53:16;20.27;;;5.65;;
26536;SDS011;14204;51.262;5.488;2023-12-20T08:55:43;23.35;;;5.65;;
26536;SDS011;14204;51.262;5.488;2023-12-20T08:58:09;21.33;;;6.28;;
26536;SDS011;14204;51.262;5.488;2023-12-20T09:00:35;28.05;;;5.57;;
26536;SDS011;14204;51.262;5.488;2023-12-20T09:03:03;28.05;;;5.35;;
26536;SDS011;14204;51.262;5.488;2023-12-20T09:05:29;28.00;;;6.18;;
26536;SDS011;14204;51.262;5.488;2023-12-20T09:07:56;24.95;;;5.15;;
26536;SDS011;14204;51.262;5.488;2023-12-20T09:10:22;20.42;;;5.63;;
26536;SDS011;14204;51.262;5.488;2023-12-20T09:12:48;16.00;;;4.80;;
26536;SDS011;14204;51.262;5.488;2023-12-20T09:15:21;18.13;;;4.90;;
26536;SDS011;14204;51.262;5.488;2023-12-20T09:17:51;28.52;;;4.88;;
26536;SDS011;14204;51.262;5.488;2023-12-20T09:20:16;20.42;;;4.47;;
26536;SDS011;14204;51.262;5.488;2023-12-20T09:22:42;26.15;;;4.28;;
26536;SDS011;14204;51.262;5.488;2023-12-20T09:25:09;25.67;;;4.47;;
26536;SDS011;14204;51.262;5.488;2023-12-20T09:27:36;26.15;;;5.68;;
26536;SDS011;14204;51.262;5.488;2023-12-20T09:30:02;22.55;;;4.82;;
26536;SDS011;14204;51.262;5.488;2023-12-20T09:32:30;28.38;;;4.32;;
26536;SDS011;14204;51.262;5.488;2023-12-20T09:34:56;26.02;;;5.15;;
26536;SDS011;14204;51.262;5.488;2023-12-20T09:37:22;23.08;;;4.85;;
26536;SDS011;14204;51.262;5.488;2023-12-20T09:39:51;24.48;;;4.75;;
26536;SDS011;14204;51.262;5.488;2023-12-20T09:42:17;25.88;;;4.47;;
26536;SDS011;14204;51.262;5.488;2023-12-20T09:44:54;20.73;;;4.57;;
26536;SDS011;14204;51.262;5.488;2023-12-20T09:47:22;22.02;;;5.00;;
26536;SDS011;14204;51.262;5.488;2023-12-20T09:49:50;26.17;;;4.80;;
26536;SDS011;14204;51.262;5.488;2023-12-20T09:52:17;21.75;;;5.47;;
26536;SDS011;14204;51.262;5.488;2023-12-20T09:54:43;23.90;;;4.32;;
26536;SDS011;14204;51.262;5.488;2023-12-20T09:57:10;18.63;;;4.75;;
26536;SDS011;14204;51.262;5.488;2023-12-20T09:59:36;24.35;;;5.45;;
26536;SDS011;14204;51.262;5.488;2023-12-20T10:02:02;27.50;;;5.05;;
26536;SDS011;14204;51.262;5.488;2023-12-20T10:04:31;20.33;;;4.55;;
26536;SDS011;14204;51.262;5.488;2023-12-20T10:07:01;23.70;;;4.80;;
26536;SDS011;14204;51.262;5.488;2023-12-20T10:09:31;18.83;;;4.25;;
26536;SDS011;14204;51.262;5.488;2023-12-20T10:11:57;30.48;;;5.88;;
26536;SDS011;14204;51.262;5.488;2023-12-20T10:14:23;20.90;;;5.25;;
26536;SDS011;14204;51.262;5.488;2023-12-20T10:16:49;20.15;;;4.80;;
26536;SDS011;14204;51.262;5.488;2023-12-20T10:19:19;24.10;;;5.32;;
26536;SDS011;14204;51.262;5.488;2023-12-20T10:21:46;22.40;;;4.57;;
26536;SDS011;14204;51.262;5.488;2023-12-20T10:24:16;20.65;;;4.78;;
26536;SDS011;14204;51.262;5.488;2023-12-20T10:26:43;22.95;;;6.15;;
26536;SDS011;14204;51.262;5.488;2023-12-20T10:29:09;20.17;;;5.28;;
26536;SDS011;14204;51.262;5.488;2023-12-20T10:31:36;18.00;;;4.68;;
26536;SDS011;14204;51.262;5.488;2023-12-20T10:34:04;26.08;;;5.20;;
26536;SDS011;14204;51.262;5.488;2023-12-20T10:36:30;19.73;;;6.28;;
26536;SDS011;14204;51.262;5.488;2023-12-20T10:38:57;22.08;;;5.45;;
26536;SDS011;14204;51.262;5.488;2023-12-20T10:41:29;22.05;;;4.10;;
26536;SDS011;14204;51.262;5.488;2023-12-20T10:44:00;21.88;;;5.63;;
26536;SDS011;14204;51.262;5.488;2023-12-20T10:46:28;19.45;;;5.43;;
26536;SDS011;14204;51.262;5.488;2023-12-20T10:48:55;22.48;;;5.20;;
26536;SDS011;14204;51.262;5.488;2023-12-20T10:51:24;23.92;;;5.38;;
26536;SDS011;14204;51.262;5.488;2023-12-20T10:53:55;24.67;;;5.45;;
26536;SDS011;14204;51.262;5.488;2023-12-20T10:56:21;27.48;;;6.38;;
26536;SDS011;14204;51.262;5.488;2023-12-20T10:58:48;21.25;;;5.38;;
26536;SDS011;14204;51.262;5.488;2023-12-20T11:01:15;26.58;;;6.38;;
26536;SDS011;14204;51.262;5.488;2023-12-20T11:03:52;25.02;;;5.75;;
26536;SDS011;14204;51.262;5.488;2023-12-20T11:06:31;27.95;;;5.70;;
26536;SDS011;14204;51.262;5.488;2023-12-20T11:14:33;22.50;;;6.10;;
26536;SDS011;14204;51.262;5.488;2023-12-20T11:17:09;32.67;;;6.53;;
26536;SDS011;14204;51.262;5.488;2023-12-20T11:19:43;23.35;;;5.35;;
26536;SDS011;14204;51.262;5.488;2023-12-20T11:22:27;21.55;;;4.30;;
26536;SDS011;14204;51.262;5.488;2023-12-20T11:25:05;17.98;;;5.45;;
26536;SDS011;14204;51.262;5.488;2023-12-20T11:27:35;20.25;;;5.25;;
26536;SDS011;14204;51.262;5.488;2023-12-20T11:30:04;18.92;;;4.72;;
26536;SDS011;14204;51.262;5.488;2023-12-20T11:32:34;24.17;;;5.22;;
26536;SDS011;14204;51.262;5.488;2023-12-20T11:35:16;22.52;;;5.55;;
26536;SDS011;14204;51.262;5.488;2023-12-20T11:37:43;19.75;;;5.15;;
26536;SDS011;14204;51.262;5.488;2023-12-20T11:40:13;23.00;;;5.05;;
26536;SDS011;14204;51.262;5.488;2023-12-20T11:42:48;31.17;;;5.38;;
26536;SDS011;14204;51.262;5.488;2023-12-20T11:45:15;24.33;;;4.78;;
26536;SDS011;14204;51.262;5.488;2023-12-20T11:47:45;27.35;;;5.30;;
26536;SDS011;14204;51.262;5.488;2023-12-20T11:50:12;17.92;;;4.57;;
26536;SDS011;14204;51.262;5.488;2023-12-20T11:52:38;20.40;;;5.15;;
26536;SDS011;14204;51.262;5.488;2023-12-20T11:55:04;14.63;;;4.35;;
26536;SDS011;14204;51.262;5.488;2023-12-20T11:57:30;24.02;;;4.82;;
26536;SDS011;14204;51.262;5.488;2023-12-20T11:59:56;24.05;;;5.10;;
26536;SDS011;14204;51.262;5.488;2023-12-20T12:02:22;29.00;;;6.13;;
26536;SDS011;14204;51.262;5.488;2023-12-20T12:04:49;23.15;;;6.22;;
26536;SDS011;14204;51.262;5.488;2023-12-20T12:07:18;29.77;;;8.18;;
26536;SDS011;14204;51.262;5.488;2023-12-20T12:09:44;21.65;;;6.20;;
26536;SDS011;14204;51.262;5.488;2023-12-20T12:12:12;22.77;;;5.90;;
26536;SDS011;14204;51.262;5.488;2023-12-20T12:14:38;24.80;;;6.05;;
26536;SDS011;14204;51.262;5.488;2023-12-20T12:17:14;25.40;;;6.18;;
26536;SDS011;14204;51.262;5.488;2023-12-20T12:19:41;20.20;;;5.38;;
26536;SDS011;14204;51.262;5.488;2023-12-20T12:22:08;17.35;;;5.60;;
26536;SDS011;14204;51.262;5.488;2023-12-20T12:24:45;24.92;;;6.47;;
26536;SDS011;14204;51.262;5.488;2023-12-20T12:27:12;25.73;;;6.63;;
26536;SDS011;14204;51.262;5.488;2023-12-20T12:29:39;18.10;;;6.22;;
26536;SDS011;14204;51.262;5.488;2023-12-20T12:32:08;26.52;;;7.13;;
26536;SDS011;14204;51.262;5.488;2023-12-20T12:34:35;22.27;;;6.88;;
26536;SDS011;14204;51.262;5.488;2023-12-20T12:37:01;25.92;;;6.97;;
26536;SDS011;14204;51.262;5.488;2023-12-20T12:39:29;26.17;;;7.07;;
26536;SDS011;14204;51.262;5.488;2023-12-20T12:41:55;30.15;;;7.53;;
26536;SDS011;14204;51.262;5.488;2023-12-20T12:44:22;21.17;;;6.97;;
26536;SDS011;14204;51.262;5.488;2023-12-20T12:46:51;26.70;;;8.27;;
26536;SDS011;14204;51.262;5.488;2023-12-20T12:49:22;21.42;;;7.07;;
26536;SDS011;14204;51.262;5.488;2023-12-20T12:51:47;17.00;;;7.18;;
26536;SDS011;14204;51.262;5.488;2023-12-20T12:54:13;20.42;;;6.03;;
26536;SDS011;14204;51.262;5.488;2023-12-20T12:56:41;18.98;;;6.65;;
26536;SDS011;14204;51.262;5.488;2023-12-20T12:59:08;18.35;;;5.88;;
26536;SDS011;14204;51.262;5.488;2023-12-20T13:01:34;22.08;;;6.45;;
26536;SDS011;14204;51.262;5.488;2023-12-20T13:03:59;17.23;;;6.38;;
26536;SDS011;14204;51.262;5.488;2023-12-20T13:06:28;20.40;;;6.80;;
26536;SDS011;14204;51.262;5.488;2023-12-20T13:08:53;26.90;;;6.63;;
26536;SDS011;14204;51.262;5.488;2023-12-20T13:11:20;21.65;;;6.75;;
26536;SDS011;14204;51.262;5.488;2023-12-20T13:13:46;15.90;;;6.10;;
26536;SDS011;14204;51.262;5.488;2023-12-20T13:16:12;20.88;;;6.32;;
26536;SDS011;14204;51.262;5.488;2023-12-20T13:18:38;24.92;;;7.40;;
26536;SDS011;14204;51.262;5.488;2023-12-20T13:21:07;19.98;;;6.90;;
26536;SDS011;14204;51.262;5.488;2023-12-20T13:23:34;26.70;;;7.05;;
26536;SDS011;14204;51.262;5.488;2023-12-20T13:26:01;21.30;;;7.22;;
26536;SDS011;14204;51.262;5.488;2023-12-20T13:28:27;18.23;;;6.78;;
26536;SDS011;14204;51.262;5.488;2023-12-20T13:30:52;23.83;;;7.32;;
26536;SDS011;14204;51.262;5.488;2023-12-20T13:33:18;26.35;;;8.43;;
26536;SDS011;14204;51.262;5.488;2023-12-20T13:35:44;25.20;;;7.68;;
26536;SDS011;14204;51.262;5.488;2023-12-20T13:38:09;25.42;;;7.43;;
26536;SDS011;14204;51.262;5.488;2023-12-20T13:40:37;23.73;;;7.10;;
26536;SDS011;14204;51.262;5.488;2023-12-20T13:43:03;22.65;;;6.95;;
26536;SDS011;14204;51.262;5.488;2023-12-20T13:45:29;21.42;;;6.45;;
26536;SDS011;14204;51.262;5.488;2023-12-20T13:47:54;26.75;;;7.40;;
26536;SDS011;14204;51.262;5.488;2023-12-20T13:50:20;20.92;;;7.05;;
26536;SDS011;14204;51.262;5.488;2023-12-20T13:52:47;26.88;;;7.78;;
26536;SDS011;14204;51.262;5.488;2023-12-20T13:55:12;22.08;;;6.85;;
26536;SDS011;14204;51.262;5.488;2023-12-20T13:57:38;30.65;;;6.93;;
26536;SDS011;14204;51.262;5.488;2023-12-20T14:00:05;28.48;;;7.35;;
26536;SDS011;14204;51.262;5.488;2023-12-20T14:02:31;25.45;;;7.10;;
26536;SDS011;14204;51.262;5.488;2023-12-20T14:04:56;23.83;;;6.80;;
26536;SDS011;14204;51.262;5.488;2023-12-20T14:07:22;21.30;;;6.40;;
26536;SDS011;14204;51.262;5.488;2023-12-20T14:09:48;26.80;;;7.60;;
26536;SDS011;14204;51.262;5.488;2023-12-20T14:12:14;23.30;;;6.90;;
26536;SDS011;14204;51.262;5.488;2023-12-20T14:14:40;23.80;;;7.70;;
26536;SDS011;14204;51.262;5.488;2023-12-20T14:17:06;23.33;;;6.82;;
26536;SDS011;14204;51.262;5.488;2023-12-20T14:19:32;19.38;;;5.70;;
26536;SDS011;14204;51.262;5.488;2023-12-20T14:21:58;21.83;;;7.50;;
26536;SDS011;14204;51.262;5.488;2023-12-20T14:24:26;20.90;;;6.07;;
26536;SDS011;14204;51.262;5.488;2023-12-20T14:26:52;20.85;;;5.90;;
26536;SDS011;14204;51.262;5.488;2023-12-20T14:29:18;22.35;;;6.18;;
26536;SDS011;14204;51.262;5.488;2023-12-20T14:31:44;22.38;;;5.55;;
26536;SDS011;14204;51.262;5.488;2023-12-20T14:34:10;31.27;;;6.15;;
26536;SDS011;14204;51.262;5.488;2023-12-20T14:36:36;22.38;;;5.68;;